KAL8900 RKPC-RKSI
Flight info
| Callsign | KAL8900 |
|---|---|
| Flight time | 0h 45m |
| Altitude | 41000 |
| Route | KAMIT1W KAMIT Y722 OLMEN OLMEN2E |
| Aircraft | A359/H-SDE2E3GHIJ3J4J5LM1ORWXY/LB1D1 |
Departure
| Time | 2026-05-01 11:11 |
|---|---|
| Airport | Jeju International Airport (RKPC) |
Arrival
| Time | 2026-05-01 11:56 |
|---|---|
| Airport | Incheon International Airport (RKSI) |
| Time | Latitude | Longitude | Altitude | Speed | Heading |
|---|---|---|---|---|---|
| 2026-05-01 10:24 | 33.50684 | 126.49112 | 100 ft | 0 kts | 152° |
| 2026-05-01 10:27 | 33.50684 | 126.49111 | 100 ft | 0 kts | 152° |
| 2026-05-01 10:39 | 33.50685 | 126.49111 | 100 ft | 0 kts | 152° |
| 2026-05-01 11:02 | 33.50690 | 126.49107 | 102 ft | 4 kts | 152° |
| 2026-05-01 11:02 | 33.50714 | 126.49092 | 98 ft | 4 kts | 152° |
| 2026-05-01 11:03 | 33.50734 | 126.49079 | 99 ft | 4 kts | 140° |
| 2026-05-01 11:03 | 33.50748 | 126.49056 | 99 ft | 4 kts | 88° |
| 2026-05-01 11:03 | 33.50740 | 126.49027 | 98 ft | 4 kts | 56° |
| 2026-05-01 11:03 | 33.50728 | 126.49006 | 99 ft | 0 kts | 58° |
| 2026-05-01 11:04 | 33.50727 | 126.49006 | 99 ft | 0 kts | 58° |
| 2026-05-01 11:07 | 33.50731 | 126.49012 | 99 ft | 4 kts | 58° |
| 2026-05-01 11:08 | 33.50766 | 126.49080 | 99 ft | 15 kts | 58° |
| 2026-05-01 11:08 | 33.50827 | 126.49201 | 103 ft | 19 kts | 58° |
| 2026-05-01 11:08 | 33.50981 | 126.49501 | 103 ft | 19 kts | 58° |
| 2026-05-01 11:09 | 33.51069 | 126.49614 | 99 ft | 17 kts | 24° |
| 2026-05-01 11:09 | 33.51183 | 126.49665 | 100 ft | 19 kts | 20° |
| 2026-05-01 11:09 | 33.51281 | 126.49736 | 101 ft | 16 kts | 53° |
| 2026-05-01 11:10 | 33.51440 | 126.49774 | 102 ft | 17 kts | 315° |
| 2026-05-01 11:10 | 33.51442 | 126.49671 | 101 ft | 9 kts | 238° |
| 2026-05-01 11:10 | 33.51401 | 126.49591 | 103 ft | 17 kts | 238° |
| 2026-05-01 11:10 | 33.51231 | 126.49258 | 99 ft | 85 kts | 238° |
| 2026-05-01 11:11 | 33.50794 | 126.48406 | 105 ft | 152 kts | 238° |
| 2026-05-01 11:11 | 33.50212 | 126.47326 | 852 ft | 152 kts | 238° |
| 2026-05-01 11:11 | 33.49611 | 126.46252 | 1563 ft | 164 kts | 242° |
| 2026-05-01 11:11 | 33.48968 | 126.44980 | 1965 ft | 193 kts | 245° |
| 2026-05-01 11:12 | 33.48245 | 126.43498 | 2470 ft | 218 kts | 243° |
| 2026-05-01 11:12 | 33.47418 | 126.41834 | 2939 ft | 244 kts | 243° |
| 2026-05-01 11:12 | 33.46844 | 126.39920 | 3737 ft | 247 kts | 269° |
| 2026-05-01 11:12 | 33.47237 | 126.37947 | 4534 ft | 250 kts | 304° |
| 2026-05-01 11:13 | 33.48517 | 126.36554 | 5409 ft | 252 kts | 330° |
| 2026-05-01 11:13 | 33.50056 | 126.35527 | 6422 ft | 254 kts | 333° |
| 2026-05-01 11:13 | 33.51614 | 126.34500 | 7385 ft | 257 kts | 332° |
| 2026-05-01 11:13 | 33.53182 | 126.33441 | 8405 ft | 261 kts | 333° |
| 2026-05-01 11:14 | 33.54767 | 126.32351 | 9441 ft | 264 kts | 333° |
| 2026-05-01 11:14 | 33.56369 | 126.31239 | 10381 ft | 270 kts | 333° |
| 2026-05-01 11:14 | 33.58078 | 126.30112 | 10881 ft | 291 kts | 336° |
| 2026-05-01 11:14 | 33.60083 | 126.29388 | 11311 ft | 312 kts | 352° |
| 2026-05-01 11:15 | 33.62265 | 126.29601 | 11867 ft | 329 kts | 15° |
| 2026-05-01 11:15 | 33.64243 | 126.30766 | 12590 ft | 341 kts | 27° |
| 2026-05-01 11:15 | 33.66261 | 126.32270 | 13324 ft | 350 kts | 28° |
| 2026-05-01 11:15 | 33.68336 | 126.33841 | 14083 ft | 356 kts | 27° |
| 2026-05-01 11:16 | 33.70452 | 126.35440 | 14755 ft | 362 kts | 27° |
| 2026-05-01 11:16 | 33.72603 | 126.37064 | 15452 ft | 369 kts | 26° |
| 2026-05-01 11:16 | 33.74799 | 126.38721 | 16138 ft | 375 kts | 26° |
| 2026-05-01 11:16 | 33.77023 | 126.40399 | 16825 ft | 380 kts | 26° |
| 2026-05-01 11:17 | 33.79277 | 126.42101 | 17498 ft | 386 kts | 26° |
| 2026-05-01 11:17 | 33.81572 | 126.43833 | 18197 ft | 392 kts | 25° |
| 2026-05-01 11:17 | 33.83900 | 126.45592 | 18812 ft | 398 kts | 26° |
| 2026-05-01 11:17 | 33.86255 | 126.47373 | 19454 ft | 402 kts | 25° |
| 2026-05-01 11:18 | 33.88635 | 126.49175 | 20090 ft | 407 kts | 25° |
| 2026-05-01 11:18 | 33.91046 | 126.51000 | 20724 ft | 411 kts | 25° |
| 2026-05-01 11:18 | 33.93485 | 126.52850 | 21369 ft | 416 kts | 25° |
| 2026-05-01 11:18 | 33.95944 | 126.54713 | 22009 ft | 421 kts | 25° |
| 2026-05-01 11:19 | 33.98437 | 126.56604 | 22636 ft | 426 kts | 25° |
| 2026-05-01 11:19 | 34.00961 | 126.58519 | 23300 ft | 431 kts | 25° |
| 2026-05-01 11:19 | 34.03504 | 126.60452 | 23954 ft | 434 kts | 25° |
| 2026-05-01 11:19 | 34.06073 | 126.62406 | 24495 ft | 439 kts | 25° |
| 2026-05-01 11:20 | 34.08672 | 126.64383 | 24871 ft | 443 kts | 25° |
| 2026-05-01 11:20 | 34.11262 | 126.66355 | 24984 ft | 451 kts | 25° |
| 2026-05-01 11:20 | 34.13971 | 126.68408 | 25013 ft | 470 kts | 25° |
| 2026-05-01 11:20 | 34.16781 | 126.70545 | 24996 ft | 482 kts | 25° |
| 2026-05-01 11:21 | 34.19614 | 126.72713 | 25012 ft | 482 kts | 25° |
| 2026-05-01 11:21 | 34.22455 | 126.74861 | 25004 ft | 479 kts | 23° |
| 2026-05-01 11:21 | 34.25424 | 126.76562 | 24999 ft | 466 kts | 12° |
| 2026-05-01 11:21 | 34.28528 | 126.77489 | 25003 ft | 456 kts | 2° |
| 2026-05-01 11:22 | 34.31654 | 126.78015 | 24999 ft | 452 kts | 359° |
| 2026-05-01 11:22 | 34.34789 | 126.78368 | 24995 ft | 451 kts | 358° |
| 2026-05-01 11:22 | 34.37912 | 126.78648 | 24994 ft | 450 kts | 357° |
| 2026-05-01 11:22 | 34.41035 | 126.78916 | 24994 ft | 450 kts | 357° |
| 2026-05-01 11:23 | 34.44155 | 126.79195 | 24992 ft | 450 kts | 358° |
| 2026-05-01 11:23 | 34.47282 | 126.79494 | 24990 ft | 450 kts | 358° |
| 2026-05-01 11:23 | 34.50406 | 126.79811 | 24991 ft | 450 kts | 358° |
| 2026-05-01 11:23 | 34.53526 | 126.80139 | 24990 ft | 451 kts | 358° |
| 2026-05-01 11:24 | 34.56649 | 126.80474 | 24999 ft | 450 kts | 358° |
| 2026-05-01 11:24 | 34.59767 | 126.80811 | 24991 ft | 450 kts | 358° |
| 2026-05-01 11:24 | 34.66001 | 126.81483 | 24990 ft | 449 kts | 358° |
| 2026-05-01 11:25 | 34.69114 | 126.81817 | 24990 ft | 449 kts | 358° |
| 2026-05-01 11:25 | 34.75303 | 126.82480 | 25000 ft | 449 kts | 358° |
| 2026-05-01 11:25 | 34.78453 | 126.82818 | 24991 ft | 449 kts | 359° |
| 2026-05-01 11:26 | 34.81567 | 126.83152 | 24988 ft | 449 kts | 358° |
| 2026-05-01 11:26 | 34.87786 | 126.83812 | 24991 ft | 449 kts | 358° |
| 2026-05-01 11:26 | 34.90856 | 126.84142 | 24989 ft | 449 kts | 359° |
| 2026-05-01 11:27 | 34.93968 | 126.84479 | 24993 ft | 449 kts | 359° |
| 2026-05-01 11:27 | 34.97081 | 126.84818 | 24987 ft | 449 kts | 359° |
| 2026-05-01 11:27 | 35.00196 | 126.85157 | 24986 ft | 449 kts | 359° |
| 2026-05-01 11:27 | 35.03312 | 126.85495 | 24987 ft | 449 kts | 359° |
| 2026-05-01 11:28 | 35.06433 | 126.85833 | 24989 ft | 449 kts | 359° |
| 2026-05-01 11:28 | 35.09555 | 126.86172 | 24990 ft | 449 kts | 359° |
| 2026-05-01 11:28 | 35.12667 | 126.86509 | 24992 ft | 449 kts | 359° |
| 2026-05-01 11:29 | 35.18887 | 126.87185 | 24992 ft | 447 kts | 359° |
| 2026-05-01 11:29 | 35.21989 | 126.87522 | 24990 ft | 446 kts | 359° |
| 2026-05-01 11:29 | 35.28178 | 126.88194 | 24993 ft | 446 kts | 359° |
| 2026-05-01 11:30 | 35.30221 | 126.88416 | 25004 ft | 446 kts | 359° |
| 2026-05-01 11:30 | 35.34355 | 126.88871 | 25018 ft | 446 kts | 359° |
| 2026-05-01 11:30 | 35.37447 | 126.89209 | 24997 ft | 445 kts | 359° |
| 2026-05-01 11:30 | 35.40532 | 126.89546 | 24988 ft | 445 kts | 359° |
| 2026-05-01 11:31 | 35.43614 | 126.89884 | 24995 ft | 444 kts | 359° |
| 2026-05-01 11:31 | 35.46656 | 126.90215 | 24989 ft | 445 kts | 359° |
| 2026-05-01 11:31 | 35.49740 | 126.90551 | 24988 ft | 445 kts | 358° |
| 2026-05-01 11:31 | 35.52823 | 126.90891 | 24993 ft | 445 kts | 359° |
| 2026-05-01 11:32 | 35.55902 | 126.91229 | 24997 ft | 444 kts | 359° |
| 2026-05-01 11:32 | 35.58973 | 126.91565 | 24991 ft | 443 kts | 359° |
| 2026-05-01 11:32 | 35.62041 | 126.91899 | 24986 ft | 442 kts | 359° |
| 2026-05-01 11:32 | 35.65111 | 126.92233 | 24987 ft | 442 kts | 359° |
| 2026-05-01 11:33 | 35.68179 | 126.92567 | 24989 ft | 442 kts | 359° |
| 2026-05-01 11:33 | 35.71250 | 126.92902 | 24985 ft | 442 kts | 359° |
| 2026-05-01 11:33 | 35.74312 | 126.93237 | 24998 ft | 442 kts | 359° |
| 2026-05-01 11:33 | 35.77368 | 126.93574 | 24639 ft | 438 kts | 359° |
| 2026-05-01 11:34 | 35.80391 | 126.93908 | 23993 ft | 434 kts | 359° |
| 2026-05-01 11:34 | 35.83377 | 126.94239 | 23323 ft | 429 kts | 359° |
| 2026-05-01 11:34 | 35.86345 | 126.94567 | 22420 ft | 427 kts | 360° |
| 2026-05-01 11:34 | 35.89294 | 126.94891 | 21564 ft | 424 kts | 360° |
| 2026-05-01 11:35 | 35.92218 | 126.95218 | 20763 ft | 421 kts | 0° |
| 2026-05-01 11:35 | 35.95132 | 126.95541 | 20069 ft | 416 kts | 0° |
| 2026-05-01 11:35 | 35.97995 | 126.95857 | 19444 ft | 411 kts | 1° |
| 2026-05-01 11:35 | 36.00821 | 126.96169 | 19073 ft | 408 kts | 1° |
| 2026-05-01 11:36 | 36.03656 | 126.96479 | 18970 ft | 410 kts | 1° |
| 2026-05-01 11:36 | 36.06500 | 126.96791 | 18964 ft | 410 kts | 1° |
| 2026-05-01 11:36 | 36.09341 | 126.97104 | 18968 ft | 410 kts | 1° |
| 2026-05-01 11:36 | 36.12180 | 126.97418 | 18978 ft | 410 kts | 1° |
| 2026-05-01 11:37 | 36.14982 | 126.97729 | 18965 ft | 409 kts | 1° |
| 2026-05-01 11:37 | 36.17825 | 126.98045 | 18956 ft | 409 kts | 1° |
| 2026-05-01 11:37 | 36.20660 | 126.98361 | 18959 ft | 409 kts | 1° |
| 2026-05-01 11:37 | 36.23500 | 126.98678 | 18951 ft | 409 kts | 1° |
| 2026-05-01 11:38 | 36.26337 | 126.98996 | 18950 ft | 410 kts | 1° |
| 2026-05-01 11:38 | 36.29176 | 126.99317 | 18948 ft | 409 kts | 1° |
| 2026-05-01 11:38 | 36.32006 | 126.99634 | 18962 ft | 408 kts | 1° |
| 2026-05-01 11:38 | 36.34832 | 126.99950 | 18827 ft | 403 kts | 1° |
| 2026-05-01 11:39 | 36.37599 | 127.00228 | 18109 ft | 397 kts | 359° |
| 2026-05-01 11:39 | 36.40156 | 127.00271 | 17241 ft | 396 kts | 357° |
| 2026-05-01 11:39 | 36.42891 | 127.00185 | 16480 ft | 391 kts | 354° |
| 2026-05-01 11:39 | 36.45593 | 126.99901 | 15729 ft | 386 kts | 352° |
| 2026-05-01 11:40 | 36.48247 | 126.99531 | 15004 ft | 382 kts | 351° |
| 2026-05-01 11:40 | 36.50870 | 126.99146 | 14328 ft | 377 kts | 351° |
| 2026-05-01 11:40 | 36.53445 | 126.98762 | 13635 ft | 372 kts | 351° |
| 2026-05-01 11:40 | 36.56014 | 126.98380 | 12767 ft | 370 kts | 351° |
| 2026-05-01 11:41 | 36.58377 | 126.98024 | 12014 ft | 367 kts | 351° |
| 2026-05-01 11:41 | 36.60879 | 126.97644 | 11374 ft | 363 kts | 351° |
| 2026-05-01 11:41 | 36.63385 | 126.97261 | 11057 ft | 363 kts | 351° |
| 2026-05-01 11:41 | 36.65895 | 126.96876 | 10986 ft | 364 kts | 351° |
| 2026-05-01 11:42 | 36.68406 | 126.96487 | 10975 ft | 363 kts | 351° |
| 2026-05-01 11:42 | 36.70906 | 126.96055 | 10960 ft | 362 kts | 347° |
| 2026-05-01 11:42 | 36.72504 | 126.95511 | 10769 ft | 356 kts | 340° |
| 2026-05-01 11:42 | 36.75474 | 126.93769 | 9755 ft | 353 kts | 332° |
| 2026-05-01 11:43 | 36.77609 | 126.92341 | 9177 ft | 354 kts | 331° |
| 2026-05-01 11:43 | 36.79777 | 126.90886 | 8948 ft | 354 kts | 331° |
| 2026-05-01 11:43 | 36.81246 | 126.89898 | 8927 ft | 354 kts | 331° |
| 2026-05-01 11:44 | 36.85573 | 126.87000 | 8921 ft | 353 kts | 331° |
| 2026-05-01 11:44 | 36.87740 | 126.85548 | 8920 ft | 353 kts | 331° |
| 2026-05-01 11:44 | 36.89909 | 126.84091 | 8921 ft | 353 kts | 331° |
| 2026-05-01 11:44 | 36.92067 | 126.82641 | 8921 ft | 353 kts | 331° |
| 2026-05-01 11:45 | 36.94227 | 126.81188 | 8924 ft | 353 kts | 331° |
| 2026-05-01 11:45 | 36.96392 | 126.79732 | 8930 ft | 353 kts | 331° |
| 2026-05-01 11:45 | 36.98557 | 126.78275 | 8935 ft | 350 kts | 331° |
| 2026-05-01 11:45 | 37.00636 | 126.76875 | 8874 ft | 329 kts | 331° |
| 2026-05-01 11:46 | 37.02593 | 126.75561 | 8642 ft | 308 kts | 331° |
| 2026-05-01 11:46 | 37.04404 | 126.74350 | 8210 ft | 284 kts | 331° |
| 2026-05-01 11:46 | 37.06088 | 126.73236 | 7818 ft | 264 kts | 331° |
| 2026-05-01 11:46 | 37.07657 | 126.72206 | 7482 ft | 246 kts | 331° |
| 2026-05-01 11:47 | 37.09169 | 126.71377 | 7146 ft | 232 kts | 342° |
| 2026-05-01 11:47 | 37.10730 | 126.71048 | 7021 ft | 227 kts | 350° |
| 2026-05-01 11:47 | 37.12307 | 126.70841 | 6739 ft | 229 kts | 351° |
| 2026-05-01 11:47 | 37.13871 | 126.70651 | 6230 ft | 226 kts | 351° |
| 2026-05-01 11:48 | 37.15384 | 126.70477 | 6017 ft | 209 kts | 351° |
| 2026-05-01 11:48 | 37.16815 | 126.70318 | 6006 ft | 206 kts | 351° |
| 2026-05-01 11:48 | 37.18219 | 126.70069 | 5997 ft | 202 kts | 342° |
| 2026-05-01 11:48 | 37.19521 | 126.69442 | 5996 ft | 199 kts | 331° |
| 2026-05-01 11:49 | 37.20714 | 126.68563 | 5980 ft | 199 kts | 325° |
| 2026-05-01 11:49 | 37.21851 | 126.67576 | 5826 ft | 199 kts | 323° |
| 2026-05-01 11:49 | 37.22977 | 126.66572 | 5549 ft | 198 kts | 323° |
| 2026-05-01 11:49 | 37.24108 | 126.65574 | 5228 ft | 199 kts | 323° |
| 2026-05-01 11:50 | 37.25247 | 126.64569 | 4907 ft | 201 kts | 323° |
| 2026-05-01 11:50 | 37.26386 | 126.63561 | 4585 ft | 200 kts | 323° |
| 2026-05-01 11:50 | 37.27522 | 126.62555 | 4291 ft | 199 kts | 323° |
| 2026-05-01 11:50 | 37.28640 | 126.61565 | 4050 ft | 195 kts | 323° |
| 2026-05-01 11:51 | 37.29752 | 126.60579 | 3785 ft | 196 kts | 322° |
| 2026-05-01 11:51 | 37.30863 | 126.59594 | 3523 ft | 195 kts | 322° |
| 2026-05-01 11:51 | 37.31970 | 126.58614 | 3271 ft | 192 kts | 321° |
| 2026-05-01 11:51 | 37.33036 | 126.57669 | 3027 ft | 184 kts | 321° |
| 2026-05-01 11:52 | 37.34062 | 126.56758 | 2778 ft | 177 kts | 321° |
| 2026-05-01 11:52 | 37.35047 | 126.55884 | 2561 ft | 171 kts | 321° |
| 2026-05-01 11:52 | 37.36010 | 126.55029 | 2342 ft | 167 kts | 321° |
| 2026-05-01 11:52 | 37.36946 | 126.54198 | 2122 ft | 161 kts | 320° |
| 2026-05-01 11:53 | 37.37827 | 126.53417 | 1897 ft | 148 kts | 320° |
| 2026-05-01 11:53 | 37.38627 | 126.52707 | 1720 ft | 134 kts | 319° |
| 2026-05-01 11:53 | 37.39353 | 126.52062 | 1531 ft | 122 kts | 319° |
| 2026-05-01 11:53 | 37.40023 | 126.51465 | 1385 ft | 117 kts | 319° |
| 2026-05-01 11:54 | 37.40691 | 126.50869 | 1234 ft | 119 kts | 319° |
| 2026-05-01 11:54 | 37.41357 | 126.50277 | 1077 ft | 119 kts | 320° |
| 2026-05-01 11:54 | 37.42037 | 126.49673 | 930 ft | 119 kts | 320° |
| 2026-05-01 11:54 | 37.42720 | 126.49066 | 759 ft | 122 kts | 319° |
| 2026-05-01 11:55 | 37.43415 | 126.48448 | 600 ft | 122 kts | 317° |
| 2026-05-01 11:55 | 37.44105 | 126.47834 | 419 ft | 121 kts | 316° |
| 2026-05-01 11:55 | 37.44792 | 126.47224 | 279 ft | 121 kts | 318° |
| 2026-05-01 11:55 | 37.45480 | 126.46610 | 120 ft | 121 kts | 319° |
| 2026-05-01 11:56 | 37.46161 | 126.46003 | 41 ft | 114 kts | 321° |
| 2026-05-01 11:56 | 37.46619 | 126.45578 | 39 ft | 44 kts | 324° |
| 2026-05-01 11:56 | 37.46818 | 126.45401 | 39 ft | 34 kts | 324° |
| 2026-05-01 11:56 | 37.47007 | 126.45230 | 41 ft | 33 kts | 324° |
| 2026-05-01 11:57 | 37.47193 | 126.45064 | 40 ft | 33 kts | 325° |
| 2026-05-01 11:57 | 37.47372 | 126.44890 | 39 ft | 29 kts | 315° |
| 2026-05-01 11:57 | 37.47451 | 126.44718 | 39 ft | 15 kts | 293° |
| 2026-05-01 11:57 | 37.47453 | 126.44656 | 39 ft | 4 kts | 237° |
| 2026-05-01 11:58 | 37.47448 | 126.44635 | 39 ft | 2 kts | 269° |
| 2026-05-01 11:58 | 37.47459 | 126.44590 | 38 ft | 9 kts | 298° |
| 2026-05-01 11:58 | 37.47645 | 126.44414 | 39 ft | 25 kts | 324° |
| 2026-05-01 11:59 | 37.47769 | 126.44297 | 39 ft | 15 kts | 308° |
| 2026-05-01 11:59 | 37.47746 | 126.44185 | 40 ft | 15 kts | 235° |
| 2026-05-01 11:59 | 37.47683 | 126.44071 | 40 ft | 17 kts | 235° |
| 2026-05-01 12:00 | 37.47539 | 126.43937 | 39 ft | 15 kts | 155° |
| 2026-05-01 12:00 | 37.47449 | 126.44014 | 38 ft | 16 kts | 144° |
| 2026-05-01 12:00 | 37.47245 | 126.44195 | 38 ft | 10 kts | 145° |
| 2026-05-01 12:01 | 37.47195 | 126.44239 | 38 ft | 11 kts | 145° |
| 2026-05-01 12:01 | 37.47137 | 126.44289 | 38 ft | 10 kts | 154° |
| 2026-05-01 12:01 | 37.47072 | 126.44264 | 38 ft | 11 kts | 228° |
| 2026-05-01 12:01 | 37.47020 | 126.44175 | 38 ft | 14 kts | 234° |
| 2026-05-01 12:02 | 37.46972 | 126.44103 | 38 ft | 10 kts | 212° |
| 2026-05-01 12:02 | 37.46909 | 126.44115 | 38 ft | 9 kts | 139° |
| 2026-05-01 12:02 | 37.46876 | 126.44122 | 38 ft | 5 kts | 205° |
| 2026-05-01 12:02 | 37.46840 | 126.44091 | 38 ft | 8 kts | 218° |
| 2026-05-01 12:03 | 37.46815 | 126.44063 | 38 ft | 2 kts | 220° |
| 2026-05-01 12:03 | 37.46804 | 126.44051 | 38 ft | 3 kts | 221° |
| 2026-05-01 12:03 | 37.46798 | 126.44045 | 38 ft | 0 kts | 220° |
| 2026-05-01 12:05 | 37.46799 | 126.44045 | 38 ft | 0 kts | 220° |
| 2026-05-01 12:06 | 37.46799 | 126.44046 | 38 ft | 0 kts | 220° |